Latest Weather Observations for Brisbane

IDQ60901

Issued at 1:41 pm EST Saturday 23 September 2017 (issued every 10 minutes, with the page automatically refreshed every 10 minutes)

About weather observations | Map of Brisbane area stations | Latest observations for Brisbane area | Other Formats
Station Details ID: 040913 Name: BRISBANE Lat: -27.48 Lon: 153.04 Height: 8.13 m
Data from the previous 72 hours. | See also: Recent months at Brisbane
Date/Time
EST
Temp
°C
App
Temp
°C
Dew
Point
°C
Rel
Hum
%
Delta-T
°C
Wind Press
QNH
hPa
Press
MSL
hPa
Rain since
9am
mm
Dir  Spd
km/h
Gust
km/h
Spd
kts
Gust
kts
23/01:30pm 27.5 28.3 17.4 54 6.3 NE 9 15 5 8 1013.0 1013.0 0.0
23/01:00pm 27.1 28.0 17.6 56 6.0 NE 9 15 5 8 1013.6 1013.6 0.0
23/12:30pm 27.2 28.0 17.4 55 6.2 NE 9 15 5 8 1014.0 1014.0 0.0
23/12:00pm 27.0 27.4 16.3 52 6.6 NE 9 15 5 8 1014.5 1014.5 0.0
23/11:30am 26.9 27.8 16.5 53 6.4 NE 7 15 4 8 1014.9 1014.9 0.0
23/11:00am 27.0 27.7 15.7 50 6.9 N 6 11 3 6 1015.4 1015.4 0.0
23/10:30am 26.3 26.7 15.4 51 6.6 NNE 7 13 4 7 1015.9 1015.9 0.0
23/10:00am 25.6 26.2 15.9 55 5.9 NE 7 13 4 7 1016.4 1016.4 0.0
23/09:30am 24.8 25.7 16.0 58 5.4 NNE 6 9 3 5 1016.7 1016.7 0.0
23/09:00am 23.5 24.1 15.3 60 4.9 NNE 6 9 3 5 1017.2 1017.2 6.0
23/08:30am 22.0 22.5 14.9 64 4.2 ENE 6 7 3 4 1017.4 1017.4 6.0
23/08:00am 21.3 22.4 14.7 66 3.9 E 2 4 1 2 1017.4 1017.4 6.0
23/07:30am 20.0 21.2 14.8 72 3.0 SE 2 4 1 2 1016.9 1016.9 6.0
23/07:00am 18.1 18.9 13.8 76 2.4 WSW 2 4 1 2 1016.8 1016.8 6.0
23/06:30am 16.7 17.7 14.2 85 1.4 WSW 2 4 1 2 1016.5 1016.5 6.0
23/06:00am 15.5 16.5 13.3 87 1.2 CALM 0 0 0 0 1016.1 1016.1 6.0
23/05:30am 15.9 16.7 13.6 86 1.3 WSW 2 4 1 2 1016.0 1016.0 6.0
23/05:00am 16.2 16.7 14.0 87 1.2 WSW 4 7 2 4 1015.9 1015.9 6.0
23/04:30am 16.3 16.8 14.1 87 1.2 WSW 4 7 2 4 1015.8 1015.8 6.0
23/04:00am 16.3 17.2 14.0 86 1.3 W 2 6 1 3 1015.6 1015.6 6.0
23/03:30am 16.7 17.4 14.5 87 1.3 WSW 4 6 2 3 1015.6 1015.6 6.0
23/03:00am 16.5 17.3 14.9 90 0.9 WSW 4 9 2 5 1015.6 1015.6 6.0
23/02:30am 15.8 17.1 14.2 90 0.9 CALM 0 0 0 0 1015.8 1015.8 6.0
23/02:00am 16.3 17.7 14.5 89 1.0 CALM 0 2 0 1 1016.2 1016.2 6.0
23/01:30am 16.2 17.7 14.7 91 0.9 CALM 0 0 0 0 1016.5 1016.5 6.0
23/01:00am 16.3 17.8 14.7 90 0.9 CALM 0 0 0 0 1016.6 1016.6 6.0
23/12:30am 16.6 17.9 14.2 86 1.4 CALM 0 2 0 1 1016.9 1016.9 6.0
23/12:00am 17.3 18.4 14.6 84 1.6 SSW 2 6 1 3 1016.7 1016.7 6.0
 
Date/Time
EST
Temp
°C
App
Temp
°C
Dew
Point
°C
Rel
Hum
%
Delta-T
°C
Wind Press
QNH
hPa
Press
MSL
hPa
Rain since
9am
mm
Dir  Spd
km/h
Gust
km/h
Spd
kts
Gust
kts
22/11:30pm 17.9 19.0 15.5 86 1.4 SSW 4 7 2 4 1016.8 1016.8 6.0
22/11:00pm 17.3 19.0 15.3 88 1.2 CALM 0 4 0 2 1016.6 1016.6 6.0
22/10:30pm 17.6 19.2 14.9 84 1.6 CALM 0 0 0 0 1016.6 1016.6 6.0
22/10:00pm 18.6 20.0 15.3 81 1.9 N 2 6 1 3 1017.0 1017.0 6.0
22/09:30pm 18.9 19.6 15.6 81 1.9 NNE 6 15 3 8 1017.0 1017.0 5.8
22/09:00pm 19.4 20.6 15.9 80 2.1 NE 4 7 2 4 1017.1 1017.1 4.2
22/08:30pm 19.6 20.5 16.1 80 2.1 ENE 6 11 3 6 1017.2 1017.2 4.2
22/08:00pm 19.2 20.5 16.1 82 1.8 NE 4 6 2 3 1017.2 1017.2 4.0
22/07:30pm 21.1 21.1 14.3 65 4.0 E 7 17 4 9 1015.8 1015.8 2.4
22/07:00pm 22.5 21.2 13.8 58 5.1 NW 13 22 7 12 1014.8 1014.8 0.0
22/06:30pm 22.7 21.4 13.7 56 5.2 NW 13 28 7 15 1015.0 1015.0 0.0
22/06:00pm 22.1 21.9 13.7 59 4.9 NNW 7 15 4 8 1014.6 1014.6 0.0
22/05:30pm 22.7 23.3 15.3 63 4.4 NNW 6 15 3 8 1014.5 1014.5 0.0
22/05:00pm 23.3 24.7 17.7 71 3.5 N 7 19 4 10 1014.8 1014.8 0.0
22/04:30pm 23.1 24.6 18.8 77 2.7 NNE 9 17 5 9 1014.8 1014.8 0.0
22/04:00pm 22.7 24.8 19.3 81 2.2 NNE 7 17 4 9 1014.8 1014.8 0.0
22/03:30pm 23.0 23.9 18.3 75 2.9 N 11 20 6 11 1014.7 1014.7 0.0
22/03:00pm 23.9 24.0 17.4 67 4.0 NE 13 24 7 13 1014.5 1014.5 0.0
22/02:30pm 26.4 26.9 17.5 58 5.6 NNE 11 24 6 13 1014.4 1014.4 0.0
22/02:00pm 26.0 25.8 16.8 57 5.7 NE 13 20 7 11 1014.6 1014.6 0.0
22/01:30pm 27.0 27.1 17.5 56 6.0 NE 13 24 7 13 1014.9 1014.9 0.0
22/01:00pm 26.5 26.8 17.0 56 5.9 NNE 11 22 6 12 1015.3 1015.3 0.0
22/12:30pm 27.4 28.1 17.0 53 6.5 NE 9 15 5 8 1015.7 1015.7 0.0
22/12:00pm 27.9 28.6 17.1 51 6.8 NE 9 15 5 8 1016.3 1016.3 0.0
22/11:30am 27.3 28.1 16.3 51 6.8 NE 7 17 4 9 1016.8 1016.8 0.0
22/11:00am 27.5 28.2 15.5 48 7.3 N 6 17 3 9 1017.4 1017.4 0.0
22/10:30am 26.6 27.2 15.3 50 6.9 N 6 11 3 6 1017.9 1017.9 0.0
22/10:00am 25.5 26.0 14.9 52 6.3 NNE 6 9 3 5 1018.3 1018.3 0.0
22/09:30am 24.4 25.0 15.3 57 5.5 NW 6 9 3 5 1018.8 1018.8 0.0
22/09:00am 24.2 24.4 15.7 59 5.1 NW 9 17 5 9 1019.0 1019.0 0.0
22/08:30am 23.8 24.4 15.8 61 4.8 NNW 7 13 4 7 1019.1 1019.1 0.0
22/08:00am 23.2 24.1 16.7 67 4.0 NW 7 15 4 8 1018.9 1018.9 0.0
22/07:30am 22.0 23.1 16.7 72 3.2 NNW 6 13 3 7 1018.9 1018.9 0.0
22/07:00am 20.9 22.1 17.3 80 2.2 NW 7 11 4 6 1018.8 1018.8 0.0
22/06:30am 19.6 21.9 17.7 89 1.2 NNE 2 6 1 3 1018.5 1018.5 0.0
22/06:00am 18.5 20.6 17.2 92 0.8 NNE 2 6 1 3 1018.1 1018.1 0.0
22/05:30am 18.5 20.5 17.0 91 0.9 NNE 2 4 1 2 1017.9 1017.9 0.0
22/05:00am 18.6 20.5 16.6 88 1.2 ENE 2 4 1 2 1017.5 1017.5 0.0
22/04:30am 19.3 21.5 17.4 89 1.2 NE 2 6 1 3 1017.2 1017.2 0.0
22/04:00am 19.4 22.1 17.7 90 1.0 CALM 0 6 0 3 1017.0 1017.0 0.0
22/03:30am 19.8 21.8 17.9 89 1.2 NE 4 6 2 3 1016.6 1016.6 0.0
22/03:00am 20.2 22.8 18.5 90 1.1 NNW 2 7 1 4 1016.9 1016.9 0.0
22/02:30am 20.3 22.9 18.4 89 1.2 N 2 4 1 2 1017.0 1017.0 0.0
22/02:00am 20.7 23.4 18.6 88 1.3 N 2 7 1 4 1017.2 1017.2 0.0
22/01:30am 20.8 22.6 18.4 86 1.5 NNE 6 9 3 5 1017.4 1017.4 0.0
22/01:00am 21.1 23.3 18.3 84 1.7 NE 4 9 2 5 1017.4 1017.4 0.0
22/12:30am 21.4 23.2 18.2 82 2.0 NE 6 13 3 7 1017.7 1017.7 0.0
22/12:00am 21.5 23.2 18.1 81 2.1 NE 6 11 3 6 1018.2 1018.2 0.0
 
Date/Time
EST
Temp
°C
App
Temp
°C
Dew
Point
°C
Rel
Hum
%
Delta-T
°C
Wind Press
QNH
hPa
Press
MSL
hPa
Rain since
9am
mm
Dir  Spd
km/h
Gust
km/h
Spd
kts
Gust
kts
21/11:30pm 21.4 22.9 17.6 79 2.3 NNE 6 13 3 7 1018.3 1018.3 0.0
21/11:00pm 21.5 22.9 17.3 77 2.6 NNE 6 13 3 7 1018.2 1018.2 0.0
21/10:30pm 21.3 22.4 17.1 77 2.6 NNE 7 13 4 7 1018.1 1018.1 0.0
21/10:00pm 21.3 22.3 16.9 76 2.7 NNE 7 15 4 8 1018.1 1018.1 0.0
21/09:30pm 21.4 22.4 16.8 75 2.8 NNE 7 17 4 9 1018.0 1018.0 0.0
21/09:00pm 21.4 22.4 16.8 75 2.8 NNE 7 15 4 8 1018.1 1018.1 0.0
21/08:30pm 21.5 22.0 16.5 73 3.0 NNE 9 24 5 13 1017.9 1017.9 0.0
21/08:00pm 21.5 22.1 16.7 74 2.9 NNE 9 20 5 11 1017.7 1017.7 0.0
21/07:30pm 21.5 22.0 16.5 73 3.0 NNE 9 19 5 10 1017.6 1017.6 0.0
21/07:00pm 21.5 22.0 16.5 73 3.0 NNE 9 20 5 11 1017.3 1017.3 0.0
21/06:30pm 21.2 20.8 16.2 73 3.0 NNE 13 26 7 14 1016.9 1016.9 0.0
21/06:00pm 21.2 21.0 15.7 71 3.3 NE 11 20 6 11 1016.5 1016.5 0.0
21/05:30pm 21.5 20.9 15.6 69 3.5 NNE 13 26 7 14 1016.1 1016.1 0.0
21/05:00pm 22.1 21.3 15.2 65 4.1 NNE 13 22 7 12 1015.9 1015.9 0.0
21/04:30pm 22.6 22.2 15.2 63 4.4 NNE 11 24 6 13 1015.6 1015.6 0.0
21/04:00pm 23.4 23.0 15.2 60 4.9 NNE 11 20 6 11 1015.4 1015.4 0.0
21/03:30pm 24.3 24.5 15.8 59 5.1 NNE 9 22 5 12 1015.5 1015.5 0.0
21/03:00pm 23.9 23.3 15.7 60 4.9 ENE 13 22 7 12 1015.6 1015.6 0.0
21/02:30pm 24.1 23.7 15.3 58 5.3 NE 11 17 6 9 1015.6 1015.6 0.0
21/02:00pm 24.6 24.0 14.7 54 5.9 NE 11 20 6 11 1015.9 1015.9 0.0
21/01:30pm 24.9 24.3 14.7 53 6.1 NE 11 19 6 10 1016.2 1016.2 0.0
21/01:00pm 24.8 23.8 14.6 53 6.1 NE 13 22 7 12 1016.5 1016.5 0.0
21/12:30pm 25.4 24.5 14.8 52 6.3 NE 13 20 7 11 1016.9 1016.9 0.0
21/12:00pm 25.4 25.2 14.8 52 6.3 NE 9 19 5 10 1017.5 1017.5 0.0
21/11:30am 24.0 23.5 13.8 53 6.0 NE 9 17 5 9 1018.0 1018.0 0.0
21/11:00am 25.5 26.1 15.8 55 5.9 NE 7 13 4 7 1018.6 1018.6 0.0
21/10:30am 23.4 22.7 14.4 57 5.3 ENE 11 19 6 10 1019.1 1019.1 0.0
21/10:00am 24.1 24.5 14.8 56 5.5 NNE 6 9 3 5 1019.5 1019.5 0.0
21/09:30am 22.3 22.3 13.6 58 5.0 NE 6 9 3 5 1019.8 1019.8 0.0
21/09:00am 22.4 22.4 14.3 60 4.7 E 7 13 4 7 1019.8 1019.8 0.0
21/08:30am 22.0 22.7 14.4 62 4.5 NNE 4 6 2 3 1020.0 1020.0 0.0
21/08:00am 20.3 20.6 13.3 64 4.0 SSE 4 7 2 4 1019.9 1019.9 0.0
21/07:30am 18.7 18.8 12.7 68 3.4 SSE 4 7 2 4 1020.0 1020.0 0.0
21/07:00am 17.2 17.4 12.9 76 2.4 SSW 4 6 2 3 1019.9 1019.9 0.0
21/06:30am 16.3 16.4 12.8 80 1.9 WSW 4 7 2 4 1019.4 1019.4 0.0
21/06:00am 15.8 16.3 12.9 83 1.6 WSW 2 6 1 3 1019.0 1019.0 0.0
21/05:30am 15.6 15.9 13.4 87 1.2 WSW 4 6 2 3 1018.6 1018.6 0.0
21/05:00am 15.4 16.4 13.1 86 1.3 CALM 0 0 0 0 1018.2 1018.2 0.0
21/04:30am 15.7 16.8 13.5 87 1.2 CALM 0 2 0 1 1018.1 1018.1 0.0
21/04:00am 15.3 16.2 13.0 86 1.3 CALM 0 0 0 0 1017.9 1017.9 0.0
21/03:30am 15.6 16.4 12.5 82 1.7 CALM 0 0 0 0 1017.8 1017.8 0.0
21/03:00am 16.2 17.0 12.6 79 2.0 CALM 0 0 0 0 1017.7 1017.7 0.0
21/02:30am 17.1 17.9 12.4 74 2.6 CALM 0 0 0 0 1017.7 1017.7 0.0
21/02:00am 18.3 18.9 13.2 72 2.9 SE 2 2 1 1 1017.9 1017.9 0.0
21/01:30am 18.5 19.3 13.8 74 2.7 SE 2 6 1 3 1018.1 1018.1 0.0
21/01:00am 17.4 18.4 13.3 77 2.3 CALM 0 0 0 0 1018.6 1018.6 0.0
21/12:30am 17.5 18.4 13.0 75 2.5 CALM 0 2 0 1 1018.7 1018.7 0.0
21/12:00am 17.9 18.9 13.2 74 2.6 CALM 0 0 0 0 1018.8 1018.8 0.0
 
Date/Time
EST
Temp
°C
App
Temp
°C
Dew
Point
°C
Rel
Hum
%
Delta-T
°C
Wind Press
QNH
hPa
Press
MSL
hPa
Rain since
9am
mm
Dir  Spd
km/h
Gust
km/h
Spd
kts
Gust
kts
20/11:30pm 18.1 19.0 12.8 71 3.0 CALM 0 0 0 0 1019.1 1019.1 0.0
20/11:00pm 19.1 19.7 13.1 68 3.4 E 2 6 1 3 1019.3 1019.3 0.0
20/10:30pm 19.6 19.5 13.3 67 3.6 E 6 9 3 5 1019.3 1019.3 0.0
20/10:00pm 19.7 20.0 13.4 67 3.6 E 4 7 2 4 1019.3 1019.3 0.0
20/09:30pm 19.6 20.3 13.3 67 3.6 ENE 2 7 1 4 1019.4 1019.4 0.0
20/09:00pm 19.5 19.4 13.2 67 3.6 ENE 6 11 3 6 1018.9 1018.9 0.0
20/08:30pm 19.9 19.6 13.4 66 3.7 ENE 7 11 4 6 1018.9 1018.9 0.0
20/08:00pm 19.9 19.7 13.6 67 3.6 E 7 13 4 7 1018.7 1018.7 0.0
20/07:30pm 19.9 19.7 13.6 67 3.6 E 7 13 4 7 1018.4 1018.4 0.0
20/07:00pm 19.9 19.7 13.6 67 3.6 ENE 7 11 4 6 1018.0 1018.0 0.0
20/06:30pm 19.6 19.2 13.1 66 3.7 E 7 13 4 7 1017.5 1017.5 0.0
20/06:00pm 19.9 19.1 12.9 64 4.0 E 9 17 5 9 1016.8 1016.8 0.0
20/05:30pm 20.5 19.0 13.0 62 4.3 ENE 13 20 7 11 1016.3 1016.3 0.0
20/05:00pm 21.2 19.6 12.9 59 4.7 E 13 22 7 12 1015.8 1015.8 0.0
20/04:30pm 22.0 20.0 12.8 56 5.2 ENE 15 32 8 17 1015.4 1015.4 0.0
20/04:00pm 22.8 21.2 12.7 53 5.8 E 13 24 7 13 1015.2 1015.2 0.0
20/03:30pm 23.5 21.1 12.8 51 6.1 ENE 17 26 9 14 1015.1 1015.1 0.0
20/03:00pm 24.4 22.8 12.7 48 6.7 ENE 13 20 7 11 1015.0 1015.0 0.0
20/02:30pm 24.8 23.6 12.7 47 7.0 ENE 11 20 6 11 1015.2 1015.2 0.0
20/02:00pm 25.0 23.3 12.6 46 7.1 ENE 13 26 7 14 1015.5 1015.5 0.0

Latest Capital City Observations: Canberra | Sydney | Melbourne | Brisbane | Adelaide | Perth | Hobart | Darwin

Other Formats:

Comma delimited format used in spreadsheet applications
http://www.bom.gov.au/fwo/IDQ60901/IDQ60901.94576.axf

JavaScript Object Notation format (JSON) in row-major order
http://www.bom.gov.au/fwo/IDQ60901/IDQ60901.94576.json